Lusaka, Zambia
Current Conditions -  °F | °C
As of 4:00 PM on Friday 24 Oct 2014 (Local Time) from FLKK Reporting Station
Haze Haze  
Wind Chill: 93°   Ceiling: Unl
Heat Index: 93°   Visibility: 6mi
Dew Point: 54°   Wind: 5mph
Humidity: 26%   Direction: 120°ESE
Pressure: 29.97"   Gusts: NA
Location:  15.42°S, 28.29°E
Report Text: FLKK 241400Z 12004KT 9999 -HZ FEW050 34/12 Q1015
Loading
Personal Weather Stations






























Interactive Weather Map New forecast layout! Learn more

10-Day Weather Forecast

Advertisements
Track Severe Weather on mobile